Terminal Aerodrome Forecast
Issued by NWS

Home | Current Version | Previous Version | Text Only | Print | Product List | Glossary On
Versions: 1 2 3 4 5 6 7 8 9 10 11 12 13 14 15 16 17 18 19 20 21 22 23 24
000
FTUS43 KDMX 202321
TAFOTM
TAF
KOTM 202321Z 2100/2124 05010KT P6SM VCSH BKN025 OVC035
     FM210100 07009KT 4SM BR VCTS OVC016CB
     FM210700 07007KT 3SM BR VCSH OVC009
     FM211200 05005KT 3SM BR VCSH OVC005
     FM211500 01005KT P6SM OVC006
     FM212000 32006KT P6SM BKN022=

USA.gov is the U.S. government's official web portal to all federal, state and local government web resources and services.